Coltons Point, Maryland
Current Conditions -  °F | °C
As of 3:53 PM on Friday 19 Dec 2014 (Local Time) from K2W6 Reporting Station
Overcast Overcast  
Wind Chill: 30°   Ceiling: 3500
Heat Index: 37°   Visibility: 10mi
Dew Point: 23°   Wind: 10mph
Humidity: 56%   Direction: 280°W
Pressure: 30.17"   Gusts: NA
Location:  38.22°N, 76.75°W
Report Text: K2W6 192053Z AUTO 28009KT 10SM OVC035 03/M05 A3017 RMK AO1
Loading
Personal Weather Stations






























Interactive Weather Map New forecast layout! Learn more

10-Day Weather Forecast

Advertisements
Track Severe Weather on mobile